Time;durP1;ratioP1;P1;durP2;ratioP2;P2;SDS_P1;SDS_P2;PMS_P1;PMS_P2;Temp;Humidity;BMP_temperature;BMP_pressure;BME280_temperature;BME280_humidity;BME280_pressure;Samples;Min_cycle;Max_cycle;Signal;HPM_P1;HPM_P2
2022/09/10 00:01:33;;;;;;;;;;;;;;;;;;4961778;28;19933;-86
2022/09/10 00:03:58;;;;;;;;;;;;;;;;;;4964313;28;19930;-87
2022/09/10 00:06:24;;;;;;;;;;;;;;;;;;4955890;28;20276;-86
2022/09/10 00:08:50;;;;;;;;;;;;;;;;;;4953104;28;19910;-87
2022/09/10 00:11:16;;;;;;;;;;;;;;;;;;4935802;29;19917;-87
2022/09/10 00:13:41;;;;;;;;;;;;;;;;;;4934359;29;19965;-88
2022/09/10 00:16:06;;;;;;;;;;;;;;;;;;4955037;28;20179;-87
2022/09/10 00:18:32;;;;;;;;;;;;;;;;;;4954794;28;20005;-87
2022/09/10 00:20:57;;;;;;;;;;;;;;;;;;4954301;29;20364;-87
2022/09/10 00:23:24;;;;;;;;;;;;;;;;;;4954429;28;19973;-87
2022/09/10 00:25:51;;;;;;;;;;;;;;;;;;4955300;28;19914;-87
2022/09/10 00:28:16;;;;;;;;;;;;;;;;;;4955054;29;19915;-87
2022/09/10 00:30:41;;;;;;;;;;;;;;;;;;4962792;28;20126;-87
2022/09/10 00:33:06;;;;;;;;;;;;;;;;;;4959690;28;19962;-88
2022/09/10 00:35:32;;;;;;;;;;;;;;;;;;4969079;28;20060;-87
2022/09/10 00:37:57;;;;;;;;;;;;;;;;;;4958388;28;20357;-87
2022/09/10 00:40:22;;;;;;;;;;;;;;;;;;4953833;29;20284;-87
2022/09/10 00:42:47;;;;;;;;;;;;;;;;;;4969665;28;19957;-87
2022/09/10 00:45:12;;;;;;;;;;;;;;;;;;4955903;28;19919;-88
2022/09/10 00:47:38;;;;;;;;;;;;;;;;;;4955347;28;20289;-87
2022/09/10 00:50:04;;;;;;;;;;;;;;;;;;4955090;28;19965;-87
2022/09/10 00:52:29;;;;;;;;;;;;;;;;;;4953855;28;20557;-87
2022/09/10 00:54:54;;;;;;;;;;;;;;;;;;4963309;28;20005;-87
2022/09/10 00:57:19;;;;;;;;;;;;;;;;;;4956716;28;19922;-87
2022/09/10 00:59:45;;;;;;;;;;;;;;;;;;4953541;29;19915;-86
2022/09/10 01:02:10;;;;;;;;;;;;;;;;;;4957434;28;19920;-87
2022/09/10 01:04:37;;;;;;;;;;;;;;;;;;4944548;29;19922;-87
2022/09/10 01:07:02;;;;;;;;;;;;;;;;;;4954050;28;20025;-86
2022/09/10 01:09:27;;;;;;;;;;;;;;;;;;4958172;28;20013;-87
2022/09/10 01:11:52;;;;;;;;;;;;;;;;;;4957981;28;20295;-87
2022/09/10 01:14:17;;;;;;;;;;;;;;;;;;4954206;28;20328;-86
2022/09/10 01:16:43;;;;;;;;;;;;;;;;;;4953350;29;19997;-87
2022/09/10 01:19:08;;;;;;;;;;;;;;;;;;4953259;28;20292;-87
2022/09/10 01:21:33;;;;;;;;;;;;;;;;;;4968612;28;19921;-87
2022/09/10 01:23:58;;;;;;;;;;;;;;;;;;4970157;28;19961;-86
2022/09/10 01:26:24;;;;;;;;;;;;;;;;;;4955407;28;19910;-86
2022/09/10 01:28:49;;;;;;;;;;;;;;;;;;4962881;28;20005;-87
2022/09/10 01:31:15;;;;;;;;;;;;;;;;;;4953547;28;19911;-87
2022/09/10 01:33:41;;;;;;;;;;;;;;;;;;4953205;28;20364;-86
2022/09/10 01:36:11;;;;;;;;;;;;;;;;;;4933944;29;19910;-87
2022/09/10 01:38:37;;;;;;;;;;;;;;;;;;4933981;29;20002;-87
2022/09/10 01:41:02;;;;;;;;;;;;;;;;;;4934216;29;19943;-87
2022/09/10 01:43:27;;;;;;;;;;;;;;;;;;4934120;29;20569;-87
2022/09/10 01:45:53;;;;;;;;;;;;;;;;;;4934199;29;19926;-86
2022/09/10 01:48:18;;;;;;;;;;;;;;;;;;4934572;29;20284;-87
2022/09/10 01:50:43;;;;;;;;;;;;;;;;;;4934381;29;19911;-86
2022/09/10 01:53:09;;;;;;;;;;;;;;;;;;4933907;29;20442;-86
2022/09/10 01:55:34;;;;;;;;;;;;;;;;;;4933793;29;20014;-86
2022/09/10 01:57:59;;;;;;;;;;;;;;;;;;4934145;29;19939;-87
2022/09/10 02:00:24;;;;;;;;;;;;;;;;;;4933747;29;19965;-86
2022/09/10 02:02:49;;;;;;;;;;;;;;;;;;4933614;29;19943;-86
2022/09/10 02:05:15;;;;;;;;;;;;;;;;;;4933837;29;19989;-86
2022/09/10 02:07:40;;;;;;;;;;;;;;;;;;4933811;29;20375;-86
2022/09/10 02:10:06;;;;;;;;;;;;;;;;;;4933552;29;20002;-86
2022/09/10 02:12:31;;;;;;;;;;;;;;;;;;4946428;28;19910;-86
2022/09/10 02:14:56;;;;;;;;;;;;;;;;;;4970480;28;19918;-86
2022/09/10 02:17:21;;;;;;;;;;;;;;;;;;4971189;28;19910;-87
2022/09/10 02:19:47;;;;;;;;;;;;;;;;;;4971715;28;19910;-86
2022/09/10 02:22:14;;;;;;;;;;;;;;;;;;4971913;28;19970;-86
2022/09/10 02:24:39;;;;;;;;;;;;;;;;;;4972191;28;19914;-87
2022/09/10 02:27:05;;;;;;;;;;;;;;;;;;4971995;28;19993;-86
2022/09/10 02:29:30;;;;;;;;;;;;;;;;;;4966890;28;19934;-86
2022/09/10 02:31:55;;;;;;;;;;;;;;;;;;4946422;28;19911;-86
2022/09/10 02:34:20;;;;;;;;;;;;;;;;;;4959595;28;19918;-86
2022/09/10 02:36:45;;;;;;;;;;;;;;;;;;4944940;28;20009;-86
2022/09/10 02:39:11;;;;;;;;;;;;;;;;;;4967291;28;20412;-86
2022/09/10 02:41:38;;;;;;;;;;;;;;;;;;4965090;28;19916;-86
2022/09/10 02:44:03;;;;;;;;;;;;;;;;;;4956224;28;20379;-87
2022/09/10 02:46:28;;;;;;;;;;;;;;;;;;4955433;28;19918;-86
2022/09/10 02:48:54;;;;;;;;;;;;;;;;;;4952115;28;19910;-87
2022/09/10 02:51:19;;;;;;;;;;;;;;;;;;4961497;28;19910;-86
2022/09/10 02:53:44;;;;;;;;;;;;;;;;;;4964156;28;19910;-86
2022/09/10 02:56:09;;;;;;;;;;;;;;;;;;4957729;28;19922;-87
2022/09/10 02:58:34;;;;;;;;;;;;;;;;;;4959147;28;20296;-86
2022/09/10 03:00:59;;;;;;;;;;;;;;;;;;4957125;28;19969;-88
2022/09/10 03:03:27;;;;;;;;;;;;;;;;;;4943789;28;20277;-86
2022/09/10 03:05:52;;;;;;;;;;;;;;;;;;4958167;28;20337;-86
2022/09/10 03:08:18;;;;;;;;;;;;;;;;;;4954489;28;20065;-86
2022/09/10 03:10:44;;;;;;;;;;;;;;;;;;4947020;28;19914;-86
2022/09/10 03:13:09;;;;;;;;;;;;;;;;;;4953457;28;19922;-88
2022/09/10 03:15:34;;;;;;;;;;;;;;;;;;4958555;28;20045;-86
2022/09/10 03:17:59;;;;;;;;;;;;;;;;;;4954451;28;20353;-86
2022/09/10 03:20:24;;;;;;;;;;;;;;;;;;4961994;28;19993;-86
2022/09/10 03:22:50;;;;;;;;;;;;;;;;;;4949408;28;20304;-86
2022/09/10 03:25:16;;;;;;;;;;;;;;;;;;4956004;28;19922;-86
2022/09/10 03:27:41;;;;;;;;;;;;;;;;;;4950589;28;19942;-89
2022/09/10 03:30:06;;;;;;;;;;;;;;;;;;4950032;28;19914;-86
2022/09/10 03:32:31;;;;;;;;;;;;;;;;;;4953224;28;19918;-86
2022/09/10 03:34:56;;;;;;;;;;;;;;;;;;4956931;28;20002;-86
2022/09/10 03:37:23;;;;;;;;;;;;;;;;;;4951642;28;19921;-86
2022/09/10 03:39:48;;;;;;;;;;;;;;;;;;4951402;28;20364;-87
2022/09/10 03:42:14;;;;;;;;;;;;;;;;;;4953699;28;19933;-87
2022/09/10 03:44:39;;;;;;;;;;;;;;;;;;4949431;28;19922;-86
2022/09/10 03:47:04;;;;;;;;;;;;;;;;;;4956835;28;20359;-86
2022/09/10 03:49:30;;;;;;;;;;;;;;;;;;4954362;28;19923;-86
2022/09/10 03:51:55;;;;;;;;;;;;;;;;;;4955764;28;20001;-86
2022/09/10 03:54:20;;;;;;;;;;;;;;;;;;4955207;28;19918;-87
2022/09/10 03:56:45;;;;;;;;;;;;;;;;;;4957587;28;20230;-86
2022/09/10 03:59:12;;;;;;;;;;;;;;;;;;4954840;28;19986;-86
2022/09/10 04:01:37;;;;;;;;;;;;;;;;;;4959629;28;20001;-86
2022/09/10 04:04:02;;;;;;;;;;;;;;;;;;4962660;28;19993;-85
2022/09/10 04:06:27;;;;;;;;;;;;;;;;;;4955673;28;19914;-89
2022/09/10 04:08:52;;;;;;;;;;;;;;;;;;4963000;28;20138;-86
2022/09/10 04:11:18;;;;;;;;;;;;;;;;;;4955435;28;19978;-88
2022/09/10 04:13:43;;;;;;;;;;;;;;;;;;4955468;28;19969;-86
2022/09/10 04:16:08;;;;;;;;;;;;;;;;;;4960474;28;20376;-86
2022/09/10 04:18:34;;;;;;;;;;;;;;;;;;4974067;28;19918;-86
2022/09/10 04:20:59;;;;;;;;;;;;;;;;;;4974213;28;20078;-87
2022/09/10 04:23:24;;;;;;;;;;;;;;;;;;4974012;28;20012;-86
2022/09/10 04:25:49;;;;;;;;;;;;;;;;;;4973673;28;19960;-86
2022/09/10 04:28:15;;;;;;;;;;;;;;;;;;4952036;29;19926;-86
2022/09/10 04:30:40;;;;;;;;;;;;;;;;;;4953776;29;19915;-87
2022/09/10 04:33:05;;;;;;;;;;;;;;;;;;4954184;28;19918;-87
2022/09/10 04:35:30;;;;;;;;;;;;;;;;;;4969030;28;19910;-87
2022/09/10 04:37:55;;;;;;;;;;;;;;;;;;4961028;28;19921;-86
2022/09/10 04:40:20;;;;;;;;;;;;;;;;;;4954340;28;19917;-86
2022/09/10 04:42:46;;;;;;;;;;;;;;;;;;4954307;28;20333;-87
2022/09/10 04:45:11;;;;;;;;;;;;;;;;;;4957709;28;20013;-86
2022/09/10 04:47:36;;;;;;;;;;;;;;;;;;4965655;28;20001;-86
2022/09/10 04:50:02;;;;;;;;;;;;;;;;;;4965450;28;19910;-87
2022/09/10 04:52:27;;;;;;;;;;;;;;;;;;4953980;28;20387;-86
2022/09/10 04:54:52;;;;;;;;;;;;;;;;;;4954556;28;19914;-86
2022/09/10 04:57:18;;;;;;;;;;;;;;;;;;4959428;28;19962;-86
2022/09/10 04:59:43;;;;;;;;;;;;;;;;;;4936350;28;19937;-87
2022/09/10 05:02:08;;;;;;;;;;;;;;;;;;4959648;28;20021;-86
2022/09/10 05:04:33;;;;;;;;;;;;;;;;;;4953912;28;20375;-87
2022/09/10 05:06:59;;;;;;;;;;;;;;;;;;4962364;28;20017;-86
2022/09/10 05:09:24;;;;;;;;;;;;;;;;;;4957264;28;20364;-86
2022/09/10 05:11:49;;;;;;;;;;;;;;;;;;4954239;28;19910;-86
2022/09/10 05:14:14;;;;;;;;;;;;;;;;;;4957313;28;20397;-87
2022/09/10 05:16:39;;;;;;;;;;;;;;;;;;4960538;28;19922;-86
2022/09/10 05:19:05;;;;;;;;;;;;;;;;;;4955330;28;20165;-86
2022/09/10 05:21:30;;;;;;;;;;;;;;;;;;4963644;28;19953;-86
2022/09/10 05:23:58;;;;;;;;;;;;;;;;;;4952953;28;20454;-85
2022/09/10 05:26:23;;;;;;;;;;;;;;;;;;4958723;28;20419;-86
2022/09/10 05:28:48;;;;;;;;;;;;;;;;;;4972362;28;19914;-86
2022/09/10 05:31:13;;;;;;;;;;;;;;;;;;4964230;28;19910;-86
2022/09/10 05:33:39;;;;;;;;;;;;;;;;;;4969152;28;20348;-86
2022/09/10 05:36:07;;;;;;;;;;;;;;;;;;4972639;28;19916;-87
2022/09/10 05:38:33;;;;;;;;;;;;;;;;;;4970962;28;19917;-86
2022/09/10 05:40:58;;;;;;;;;;;;;;;;;;4973273;28;19914;-86
2022/09/10 05:43:23;;;;;;;;;;;;;;;;;;4973459;28;19914;-87
2022/09/10 05:45:51;;;;;;;;;;;;;;;;;;4972977;28;19922;-86
2022/09/10 05:48:16;;;;;;;;;;;;;;;;;;4955750;28;19910;-86
2022/09/10 05:50:41;;;;;;;;;;;;;;;;;;4973067;28;20001;-86
2022/09/10 05:53:08;;;;;;;;;;;;;;;;;;4972918;28;20362;-86
2022/09/10 05:55:33;;;;;;;;;;;;;;;;;;4972925;28;19910;-86
2022/09/10 05:57:59;;;;;;;;;;;;;;;;;;4964702;28;19926;-86
2022/09/10 06:00:24;;;;;;;;;;;;;;;;;;4953730;28;20314;-86
2022/09/10 06:02:49;;;;;;;;;;;;;;;;;;4970728;28;20013;-87
2022/09/10 06:05:15;;;;;;;;;;;;;;;;;;4972681;28;19910;-87
2022/09/10 06:07:40;;;;;;;;;;;;;;;;;;4975656;23;19999;-88
2022/09/10 06:10:05;;;;;;;;;;;;;;;;;;4956490;28;19906;-87
2022/09/10 06:12:30;;;;;;;;;;;;;;;;;;4955030;29;19915;-87
2022/09/10 06:14:55;;;;;;;;;;;;;;;;;;4954312;29;19923;-88
2022/09/10 06:17:21;;;;;;;;;;;;;;;;;;4951666;29;19918;-88
2022/09/10 06:19:46;;;;;;;;;;;;;;;;;;4950291;29;19914;-88
2022/09/10 06:22:13;;;;;;;;;;;;;;;;;;4935831;29;19930;-87
2022/09/10 06:24:38;;;;;;;;;;;;;;;;;;4946460;29;19919;-88
2022/09/10 06:27:04;;;;;;;;;;;;;;;;;;4953436;28;19919;-88
2022/09/10 06:29:30;;;;;;;;;;;;;;;;;;4973680;28;19910;-88
2022/09/10 06:31:55;;;;;;;;;;;;;;;;;;4961472;28;19914;-89
2022/09/10 06:34:22;;;;;;;;;;;;;;;;;;4927731;29;19919;-88
2022/09/10 06:36:51;;;;;;;;;;;;;;;;;;4933727;28;20384;-89
2022/09/10 06:39:16;;;;;;;;;;;;;;;;;;4938942;28;19915;-88
2022/09/10 06:41:42;;;;;;;;;;;;;;;;;;4944192;28;19918;-88
2022/09/10 06:44:07;;;;;;;;;;;;;;;;;;4952520;28;20012;-88
2022/09/10 06:46:32;;;;;;;;;;;;;;;;;;4939715;28;21036;-90
2022/09/10 06:49:00;;;;;;;;;;;;;;;;;;4940889;28;19918;-89
2022/09/10 06:51:25;;;;;;;;;;;;;;;;;;4943313;28;19962;-89
2022/09/10 06:53:50;;;;;;;;;;;;;;;;;;4944902;28;20325;-89
2022/09/10 06:56:16;;;;;;;;;;;;;;;;;;4947663;28;19924;-90
2022/09/10 06:58:41;;;;;;;;;;;;;;;;;;4943229;28;20420;-87
2022/09/10 07:01:07;;;;;;;;;;;;;;;;;;4952682;28;19918;-88
2022/09/10 07:03:32;;;;;;;;;;;;;;;;;;4956718;28;20400;-87
2022/09/10 07:05:57;;;;;;;;;;;;;;;;;;4948473;28;19977;-87
2022/09/10 07:08:24;;;;;;;;;;;;;;;;;;4948596;28;20031;-88
2022/09/10 07:10:49;;;;;;;;;;;;;;;;;;4944769;28;20393;-88
2022/09/10 07:13:15;;;;;;;;;;;;;;;;;;4948677;28;19914;-86
2022/09/10 07:15:40;;;;;;;;;;;;;;;;;;4962165;28;19910;-87
2022/09/10 07:18:05;;;;;;;;;;;;;;;;;;4935135;29;19926;-88
2022/09/10 07:20:31;;;;;;;;;;;;;;;;;;4948087;28;20652;-87
2022/09/10 07:22:57;;;;;;;;;;;;;;;;;;4942115;28;19934;-86
2022/09/10 07:25:22;;;;;;;;;;;;;;;;;;4949056;28;20009;-85
2022/09/10 07:27:48;;;;;;;;;;;;;;;;;;4951346;28;19915;-85
2022/09/10 07:30:13;;;;;;;;;;;;;;;;;;4943950;28;21195;-86
2022/09/10 07:32:42;;;;;;;;;;;;;;;;;;4940480;28;19937;-86
2022/09/10 07:35:07;;;;;;;;;;;;;;;;;;4927833;29;19919;-87
2022/09/10 07:37:32;;;;;;;;;;;;;;;;;;4939523;28;19937;-86
2022/09/10 07:39:57;;;;;;;;;;;;;;;;;;4942071;28;19989;-85
2022/09/10 07:42:24;;;;;;;;;;;;;;;;;;4937391;28;20413;-85
2022/09/10 07:44:49;;;;;;;;;;;;;;;;;;4952224;28;19915;-85
2022/09/10 07:47:14;;;;;;;;;;;;;;;;;;4944863;28;19919;-85
2022/09/10 07:49:39;;;;;;;;;;;;;;;;;;4941855;28;19922;-86
2022/09/10 07:52:05;;;;;;;;;;;;;;;;;;4945140;28;20388;-87
2022/09/10 07:54:30;;;;;;;;;;;;;;;;;;4941571;28;19969;-86
2022/09/10 07:56:55;;;;;;;;;;;;;;;;;;4942727;28;19923;-87
2022/09/10 07:59:20;;;;;;;;;;;;;;;;;;4945252;28;19941;-86
2022/09/10 08:01:46;;;;;;;;;;;;;;;;;;4942760;28;19918;-86
2022/09/10 08:04:11;;;;;;;;;;;;;;;;;;4950331;28;19919;-89
2022/09/10 08:06:37;;;;;;;;;;;;;;;;;;4954611;28;19929;-89
2022/09/10 08:09:03;;;;;;;;;;;;;;;;;;4937886;28;19914;-86
2022/09/10 08:11:28;;;;;;;;;;;;;;;;;;4943952;28;19925;-85
2022/09/10 08:13:53;;;;;;;;;;;;;;;;;;4942210;28;19929;-86
2022/09/10 08:16:18;;;;;;;;;;;;;;;;;;4944082;28;20419;-86
2022/09/10 08:18:43;;;;;;;;;;;;;;;;;;4946672;28;19915;-86
2022/09/10 08:21:09;;;;;;;;;;;;;;;;;;4955849;28;20388;-86
2022/09/10 08:23:34;;;;;;;;;;;;;;;;;;4948287;28;20561;-86
2022/09/10 08:26:00;;;;;;;;;;;;;;;;;;4950402;28;19915;-89
2022/09/10 08:28:26;;;;;;;;;;;;;;;;;;4942805;28;19919;-86
2022/09/10 08:30:51;;;;;;;;;;;;;;;;;;4945845;28;20021;-87
2022/09/10 08:33:17;;;;;;;;;;;;;;;;;;4951164;28;20010;-86
2022/09/10 08:35:42;;;;;;;;;;;;;;;;;;4947295;28;19918;-86
2022/09/10 08:38:07;;;;;;;;;;;;;;;;;;4951777;28;19922;-87
2022/09/10 08:40:32;;;;;;;;;;;;;;;;;;4946935;28;19914;-86
2022/09/10 08:43:00;;;;;;;;;;;;;;;;;;4950607;28;20649;-87
2022/09/10 08:45:25;;;;;;;;;;;;;;;;;;4949887;28;19969;-87
2022/09/10 08:47:52;;;;;;;;;;;;;;;;;;4938809;28;19914;-85
2022/09/10 08:50:17;;;;;;;;;;;;;;;;;;4950824;28;19918;-86
2022/09/10 08:52:43;;;;;;;;;;;;;;;;;;4948147;28;19981;-87
2022/09/10 08:55:08;;;;;;;;;;;;;;;;;;4944515;28;19918;-85
2022/09/10 08:57:33;;;;;;;;;;;;;;;;;;4940162;28;20424;-86
2022/09/10 08:59:58;;;;;;;;;;;;;;;;;;4939652;28;19923;-86
2022/09/10 09:02:23;;;;;;;;;;;;;;;;;;4936926;28;19932;-85
2022/09/10 09:04:48;;;;;;;;;;;;;;;;;;4941348;28;20368;-86
2022/09/10 09:07:14;;;;;;;;;;;;;;;;;;4935213;28;19926;-86
2022/09/10 09:09:41;;;;;;;;;;;;;;;;;;4944894;28;19978;-85
2022/09/10 09:12:09;;;;;;;;;;;;;;;;;;4944553;28;19914;-86
2022/09/10 09:14:37;;;;;;;;;;;;;;;;;;4938877;28;20309;-86
2022/09/10 09:17:06;;;;;;;;;;;;;;;;;;4938006;28;19989;-87
2022/09/10 09:19:33;;;;;;;;;;;;;;;;;;4937408;28;19921;-86
2022/09/10 09:22:02;;;;;;;;;;;;;;;;;;4941549;28;19915;-84
2022/09/10 09:24:27;;;;;;;;;;;;;;;;;;4939846;28;19969;-84
2022/09/10 09:26:53;;;;;;;;;;;;;;;;;;4939715;28;19915;-83
2022/09/10 09:29:18;;;;;;;;;;;;;;;;;;4940371;28;19922;-83
2022/09/10 09:31:44;;;;;;;;;;;;;;;;;;4944636;28;19918;-84
2022/09/10 09:34:09;;;;;;;;;;;;;;;;;;4937114;28;19915;-84
2022/09/10 09:36:35;;;;;;;;;;;;;;;;;;4940633;28;19914;-84
2022/09/10 09:39:00;;;;;;;;;;;;;;;;;;4937859;28;21093;-84
2022/09/10 09:41:26;;;;;;;;;;;;;;;;;;4936479;28;19919;-85
2022/09/10 09:43:51;;;;;;;;;;;;;;;;;;4940461;28;19919;-85
2022/09/10 09:46:16;;;;;;;;;;;;;;;;;;4947780;28;19914;-87
2022/09/10 09:48:41;;;;;;;;;;;;;;;;;;4952357;28;20365;-87
2022/09/10 09:51:06;;;;;;;;;;;;;;;;;;4948022;28;19953;-86
2022/09/10 09:53:32;;;;;;;;;;;;;;;;;;4937084;28;20398;-85
2022/09/10 09:55:57;;;;;;;;;;;;;;;;;;4942065;28;19915;-87
2022/09/10 10:01:13;;;;;;;;;;;;;;;;;;4931200;29;21631;-88
2022/09/10 10:03:38;;;;;;;;;;;;;;;;;;4959547;28;19925;-88
2022/09/10 10:06:04;;;;;;;;;;;;;;;;;;4954761;28;19997;-87
2022/09/10 10:08:30;;;;;;;;;;;;;;;;;;4952027;28;19978;-85
2022/09/10 10:10:55;;;;;;;;;;;;;;;;;;4943225;28;19943;-87
2022/09/10 10:13:20;;;;;;;;;;;;;;;;;;4955699;29;19918;-85
2022/09/10 10:15:45;;;;;;;;;;;;;;;;;;4950088;28;19918;-86
2022/09/10 10:18:11;;;;;;;;;;;;;;;;;;4948305;28;19915;-86
2022/09/10 10:20:36;;;;;;;;;;;;;;;;;;4951085;28;19918;-86
2022/09/10 10:23:01;;;;;;;;;;;;;;;;;;4945994;28;20021;-86
2022/09/10 10:25:26;;;;;;;;;;;;;;;;;;4952473;28;20303;-87
2022/09/10 10:27:53;;;;;;;;;;;;;;;;;;4952800;28;20094;-86
2022/09/10 10:30:31;;;;;;;;;;;;;;;;;;4950160;28;19953;-87
2022/09/10 10:47:03;;;;;;;;;;;;;;;;;;4931781;29;19937;-88
2022/09/10 11:15:23;;;;;;;;;;;;;;;;;;4874537;29;19958;-87
2022/09/10 11:20:44;;;;;;;;;;;;;;;;;;;;;
2022/09/10 11:28:55;;;;;;;;;;;;;;;;;;4912006;29;20616;-87
2022/09/10 11:37:14;;;;;;;;;;;;;;;;;;;;;
2022/09/10 11:39:44;;;;;;;;;;;;;;;;;;4939013;28;19924;-87
2022/09/10 11:50:41;;;;;;;;;;;;;;;;;;4937579;28;19918;-88
2022/09/10 11:56:06;;;;;;;;;;;;;;;;;;4929722;29;20186;-88
2022/09/10 12:01:39;;;;;;;;;;;;;;;;;;;;;
2022/09/10 12:04:23;;;;;;;;;;;;;;;;;;;;;
2022/09/10 12:24:04;;;;;;;;;;;;;;;;;;;;;
2022/09/10 12:34:57;;;;;;;;;;;;;;;;;;4861800;29;19931;-84
2022/09/10 12:40:10;;;;;;;;;;;;;;;;;;4919014;29;19919;-84
2022/09/10 12:42:48;;;;;;;;;;;;;;;;;;4931320;29;20388;-84
2022/09/10 12:45:13;;;;;;;;;;;;;;;;;;4936275;29;19986;-84
2022/09/10 12:47:48;;;;;;;;;;;;;;;;;;4931924;29;20422;-84
2022/09/10 12:50:14;;;;;;;;;;;;;;;;;;4933377;29;19918;-83
2022/09/10 12:52:39;;;;;;;;;;;;;;;;;;4934561;29;20022;-84
2022/09/10 12:55:04;;;;;;;;;;;;;;;;;;4927983;29;19926;-85
2022/09/10 12:57:29;;;;;;;;;;;;;;;;;;4926641;29;21181;-85
2022/09/10 12:59:54;;;;;;;;;;;;;;;;;;4930019;29;19922;-85
2022/09/10 13:02:20;;;;;;;;;;;;;;;;;;4931462;29;19934;-84
2022/09/10 13:04:46;;;;;;;;;;;;;;;;;;4923268;29;19939;-84
2022/09/10 13:07:20;;;;;;;;;;;;;;;;;;4932743;29;20439;-84
2022/09/10 13:09:45;;;;;;;;;;;;;;;;;;4932693;29;19914;-85
2022/09/10 13:12:13;;;;;;;;;;;;;;;;;;4933408;29;20005;-84
2022/09/10 13:14:38;;;;;;;;;;;;;;;;;;4932620;29;19918;-83
2022/09/10 13:17:06;;;;;;;;;;;;;;;;;;4931925;29;19983;-84
2022/09/10 13:19:36;;;;;;;;;;;;;;;;;;4934867;29;20034;-84
2022/09/10 13:22:04;;;;;;;;;;;;;;;;;;4932026;29;20308;-84
2022/09/10 13:24:33;;;;;;;;;;;;;;;;;;4932629;29;20158;-83
2022/09/10 13:26:58;;;;;;;;;;;;;;;;;;4935824;29;19915;-84
2022/09/10 13:29:23;;;;;;;;;;;;;;;;;;4932061;29;20015;-84
2022/09/10 13:32:06;;;;;;;;;;;;;;;;;;4936948;29;19918;-84
2022/09/10 13:37:37;;;;;;;;;;;;;;;;;;4910885;29;20168;-86
2022/09/10 13:40:24;;;;;;;;;;;;;;;;;;;;;
2022/09/10 13:43:00;;;;;;;;;;;;;;;;;;4932033;28;19925;-87
2022/09/10 13:45:31;;;;;;;;;;;;;;;;;;4928495;29;19971;-86
2022/09/10 13:53:26;;;;;;;;;;;;;;;;;;4897726;29;20013;-86
2022/09/10 14:01:39;;;;;;;;;;;;;;;;;;4895243;29;19963;-86
2022/09/10 23:36:39;;;;;;;;;;;;;;;;;;4924428;29;19954;-88
2022/09/10 23:39:04;;;;;;;;;;;;;;;;;;4905999;29;20293;-88
2022/09/10 23:41:29;;;;;;;;;;;;;;;;;;4908319;29;20409;-87
2022/09/10 23:43:54;;;;;;;;;;;;;;;;;;4910868;29;19931;-87
2022/09/10 23:46:19;;;;;;;;;;;;;;;;;;4910273;29;19919;-88
2022/09/10 23:48:45;;;;;;;;;;;;;;;;;;4906025;29;20049;-87
2022/09/10 23:51:10;;;;;;;;;;;;;;;;;;4912470;29;20377;-87
2022/09/10 23:53:35;;;;;;;;;;;;;;;;;;4909961;29;19953;-87
2022/09/10 23:56:01;;;;;;;;;;;;;;;;;;4908103;29;20357;-88
2022/09/10 23:58:26;;;;;;;;;;;;;;;;;;4910757;29;19925;-87
